Time;durP1;ratioP1;P1;durP2;ratioP2;P2;SDS_P1;SDS_P2;PMS_P1;PMS_P2;Temp;Humidity;BMP_temperature;BMP_pressure;BME280_temperature;BME280_humidity;BME280_pressure;Samples;Min_cycle;Max_cycle;Signal;HPM_P1;HPM_P2
2022/11/10 00:02:13;;;;;;;9.75;3.10;;;11.50;83.10;;;;;;5040283;28;20581;-70
2022/11/10 00:04:38;;;;;;;8.30;3.13;;;11.50;83.10;;;;;;5047583;28;20024;-69
2022/11/10 00:07:04;;;;;;;7.82;3.13;;;11.50;83.10;;;;;;5038195;28;20021;-69
2022/11/10 00:09:29;;;;;;;11.93;3.45;;;11.50;83.10;;;;;;5048841;28;20021;-69
2022/11/10 00:11:55;;;;;;;8.43;3.15;;;11.50;83.10;;;;;;5041086;28;20033;-72
2022/11/10 00:17:04;;;;;;;8.35;3.05;;;11.40;83.10;;;;;;5035732;28;20071;-71
2022/11/10 00:19:31;;;;;;;7.97;2.72;;;11.40;83.20;;;;;;5047150;28;20064;-71
2022/11/10 00:21:57;;;;;;;7.90;2.85;;;11.40;83.20;;;;;;5040724;28;20025;-70
2022/11/10 00:24:23;;;;;;;10.07;2.80;;;11.40;83.30;;;;;;5028012;28;20074;-70
2022/11/10 00:26:49;;;;;;;9.05;3.03;;;11.30;83.40;;;;;;5029018;28;20073;-71
2022/11/10 00:29:15;;;;;;;9.15;3.35;;;11.30;83.50;;;;;;5027786;28;20025;-72
2022/11/10 00:31:41;;;;;;;7.20;2.33;;;11.30;83.40;;;;;;5029262;28;20476;-69
2022/11/10 00:34:12;;;;;;;7.80;2.97;;;11.30;83.30;;;;;;5027168;28;20021;-69
2022/11/10 00:36:38;;;;;;;8.90;3.10;;;11.30;83.30;;;;;;5044205;28;20099;-69
2022/11/10 00:39:04;;;;;;;9.52;3.22;;;11.30;83.40;;;;;;5039466;28;20026;-69
2022/11/10 00:41:30;;;;;;;13.48;3.85;;;11.30;83.60;;;;;;5032355;28;20112;-69
2022/11/10 00:43:56;;;;;;;9.88;3.15;;;11.20;83.70;;;;;;5047145;28;20017;-69
2022/11/10 00:46:21;;;;;;;12.10;3.88;;;11.20;83.80;;;;;;5048531;28;20056;-68
2022/11/10 00:48:47;;;;;;;12.68;3.63;;;11.20;83.90;;;;;;5045127;28;20052;-68
2022/11/10 00:51:24;;;;;;;11.30;4.20;;;11.20;83.90;;;;;;5048452;28;20021;-70
2022/11/10 00:53:50;;;;;;;10.68;3.33;;;11.10;84.20;;;;;;5044070;28;20506;-69
2022/11/10 00:56:16;;;;;;;10.65;3.47;;;11.10;84.40;;;;;;5048417;28;20021;-69
2022/11/10 00:58:42;;;;;;;12.50;3.40;;;11.10;84.40;;;;;;5035415;28;20029;-71
2022/11/10 01:01:08;;;;;;;8.75;3.20;;;11.10;84.40;;;;;;5047900;28;20029;-71
2022/11/10 01:03:34;;;;;;;9.35;2.95;;;11.10;84.30;;;;;;5045116;28;20123;-70
2022/11/10 01:06:08;;;;;;;11.93;3.40;;;11.10;84.40;;;;;;5052687;28;20108;-70
2022/11/10 01:08:34;;;;;;;10.10;2.70;;;11.10;84.40;;;;;;5042205;28;20044;-69
2022/11/10 01:11:08;;;;;;;9.52;3.20;;;11.10;84.40;;;;;;5052004;28;20083;-70
2022/11/10 01:13:34;;;;;;;7.15;2.88;;;11.10;84.40;;;;;;5051172;28;20655;-70
2022/11/10 01:16:08;;;;;;;9.63;3.17;;;11.10;84.30;;;;;;5052523;28;20021;-70
2022/11/10 01:18:34;;;;;;;12.18;3.30;;;11.00;84.40;;;;;;5044367;28;20064;-70
2022/11/10 01:20:59;;;;;;;9.25;3.10;;;11.00;84.40;;;;;;5032436;28;20057;-70
2022/11/10 01:23:25;;;;;;;9.27;3.05;;;11.00;84.40;;;;;;5036389;28;20136;-70
2022/11/10 01:25:50;;;;;;;10.10;3.40;;;11.00;84.40;;;;;;5050756;28;20021;-69
2022/11/10 01:28:16;;;;;;;10.45;3.33;;;11.00;84.50;;;;;;5036679;28;20025;-69
2022/11/10 01:30:42;;;;;;;10.63;3.33;;;11.00;84.60;;;;;;5032319;28;20112;-69
2022/11/10 01:33:07;;;;;;;10.45;3.70;;;11.00;84.70;;;;;;5032170;28;20100;-69
2022/11/10 01:35:33;;;;;;;9.10;3.20;;;11.00;84.80;;;;;;5032320;28;20037;-69
2022/11/10 01:37:59;;;;;;;10.18;3.30;;;11.00;84.80;;;;;;5032138;28;20105;-69
2022/11/10 01:40:25;;;;;;;10.25;3.22;;;11.00;84.70;;;;;;5034267;28;20294;-71
2022/11/10 01:42:52;;;;;;;9.68;3.20;;;11.00;84.70;;;;;;5036717;28;20559;-70
2022/11/10 01:45:24;;;;;;;9.75;3.38;;;11.00;84.70;;;;;;5032214;28;20025;-70
2022/11/10 01:47:56;;;;;;;8.40;3.40;;;10.90;84.80;;;;;;5032159;28;20534;-69
2022/11/10 01:50:26;;;;;;;10.65;3.00;;;10.90;84.80;;;;;;5037821;28;20288;-70
2022/11/10 01:52:55;;;;;;;9.68;3.10;;;11.00;85.20;;;;;;5048161;28;20588;-70
2022/11/10 01:55:23;;;;;;;9.98;3.30;;;10.90;84.80;;;;;;5038338;28;20060;-70
2022/11/10 01:57:49;;;;;;;12.70;3.63;;;10.90;84.90;;;;;;5033215;28;20072;-71
2022/11/10 02:00:16;;;;;;;9.48;3.47;;;10.90;85.00;;;;;;5042660;28;20057;-70
2022/11/10 02:02:50;;;;;;;12.63;3.45;;;10.90;85.20;;;;;;5050532;28;20040;-70
2022/11/10 02:05:16;;;;;;;12.13;3.53;;;10.80;86.00;;;;;;5041612;28;20049;-71
2022/11/10 02:07:42;;;;;;;9.57;3.30;;;10.80;85.50;;;;;;5031585;28;20040;-70
2022/11/10 02:10:16;;;;;;;12.63;4.32;;;10.80;85.50;;;;;;5030520;28;20022;-70
2022/11/10 02:12:42;;;;;;;7.90;3.20;;;10.80;85.60;;;;;;5030288;28;20029;-69
2022/11/10 02:15:11;;;;;;;11.65;3.90;;;10.80;85.70;;;;;;5041553;28;20029;-71
2022/11/10 02:17:39;;;;;;;9.88;3.42;;;10.90;85.80;;;;;;5032007;28;20142;-70
2022/11/10 02:20:09;;;;;;;8.07;3.10;;;10.90;85.80;;;;;;5031779;28;20105;-69
2022/11/10 02:22:36;;;;;;;9.48;3.08;;;10.90;85.70;;;;;;5031487;28;20033;-71
2022/11/10 02:25:02;;;;;;;10.95;3.42;;;10.90;85.60;;;;;;5029797;28;20024;-70
2022/11/10 02:27:29;;;;;;;8.23;2.72;;;10.90;85.50;;;;;;5031425;28;20026;-71
2022/11/10 02:29:55;;;;;;;8.63;3.03;;;10.90;85.50;;;;;;5033359;28;20084;-72
2022/11/10 02:32:21;;;;;;;10.18;3.42;;;10.90;85.50;;;;;;5033227;28;20033;-72
2022/11/10 02:34:47;;;;;;;8.57;3.00;;;11.00;85.60;;;;;;5029836;28;20086;-71
2022/11/10 02:37:12;;;;;;;9.00;3.30;;;10.90;85.50;;;;;;5031109;28;20492;-72
2022/11/10 02:39:38;;;;;;;8.13;3.17;;;10.90;85.50;;;;;;5033201;28;20048;-71
2022/11/10 02:42:09;;;;;;;7.85;2.90;;;11.00;85.60;;;;;;5038904;28;20033;-71
2022/11/10 02:44:36;;;;;;;11.15;3.60;;;10.90;85.50;;;;;;5040348;28;20029;-71
2022/11/10 02:47:02;;;;;;;9.23;3.30;;;11.00;85.50;;;;;;5039137;28;20025;-71
2022/11/10 02:49:27;;;;;;;11.07;3.53;;;11.00;85.50;;;;;;5030865;28;20044;-71
2022/11/10 02:51:53;;;;;;;13.55;3.47;;;11.00;85.40;;;;;;5032461;28;20029;-71
2022/11/10 02:54:19;;;;;;;8.57;3.17;;;11.00;85.40;;;;;;5030923;28;20116;-70
2022/11/10 02:56:45;;;;;;;8.43;3.40;;;11.00;85.50;;;;;;5031708;28;20025;-71
2022/11/10 02:59:11;;;;;;;8.50;3.20;;;11.00;85.60;;;;;;5032139;28;20150;-71
2022/11/10 03:01:36;;;;;;;9.48;3.30;;;11.00;85.60;;;;;;5032220;28;20060;-71
2022/11/10 03:04:02;;;;;;;7.88;3.00;;;11.00;85.60;;;;;;5049525;28;20033;-68
2022/11/10 03:06:27;;;;;;;9.13;3.75;;;11.00;85.60;;;;;;5033022;28;20036;-68
2022/11/10 03:08:53;;;;;;;12.48;3.50;;;11.00;86.20;;;;;;5045209;28;20032;-69
2022/11/10 03:11:18;;;;;;;12.80;4.47;;;11.00;85.70;;;;;;5044754;28;20033;-69
2022/11/10 03:13:44;;;;;;;12.05;3.63;;;11.00;85.80;;;;;;5043739;28;20032;-68
2022/11/10 03:16:09;;;;;;;9.70;3.60;;;11.00;85.80;;;;;;5049237;28;20112;-68
2022/11/10 03:18:35;;;;;;;7.85;3.25;;;11.00;85.80;;;;;;5037276;28;20018;-69
2022/11/10 03:21:00;;;;;;;10.52;3.03;;;11.00;85.90;;;;;;5037580;28;20020;-69
2022/11/10 03:23:26;;;;;;;8.07;3.15;;;11.00;85.90;;;;;;5047399;28;20033;-68
2022/11/10 03:25:51;;;;;;;10.77;3.80;;;10.90;85.80;;;;;;5048992;28;20074;-69
2022/11/10 03:28:17;;;;;;;10.40;3.17;;;10.90;85.80;;;;;;5038930;28;20088;-69
2022/11/10 03:30:42;;;;;;;7.72;2.72;;;10.90;85.90;;;;;;5041050;28;20025;-69
2022/11/10 03:33:08;;;;;;;7.15;3.08;;;10.90;86.00;;;;;;5046974;28;20044;-69
2022/11/10 03:35:34;;;;;;;10.82;3.47;;;10.90;86.00;;;;;;5048287;28;20036;-69
2022/11/10 03:38:00;;;;;;;9.07;3.95;;;10.90;85.90;;;;;;5047235;28;20059;-70
2022/11/10 03:40:26;;;;;;;9.85;3.55;;;10.90;85.80;;;;;;5039092;28;20026;-70
2022/11/10 03:42:51;;;;;;;11.93;3.42;;;10.90;86.00;;;;;;5048121;28;20471;-69
2022/11/10 03:45:17;;;;;;;10.32;3.70;;;10.90;85.90;;;;;;5048602;28;20025;-69
2022/11/10 03:47:49;;;;;;;8.70;2.90;;;10.80;85.90;;;;;;5048806;28;20037;-69
2022/11/10 03:50:15;;;;;;;;;;;10.80;85.90;;;;;;5043594;28;20136;-69
2022/11/10 03:52:43;;;;;;;9.80;3.90;;;10.80;85.80;;;;;;5047767;28;19913;-69
2022/11/10 03:55:11;;;;;;;12.48;3.78;;;10.80;86.00;;;;;;5044661;28;20028;-69
2022/11/10 03:57:37;;;;;;;11.52;3.03;;;10.80;86.10;;;;;;5046473;28;20029;-70
2022/11/10 04:00:03;;;;;;;10.50;3.38;;;10.80;86.00;;;;;;5045981;28;20449;-70
2022/11/10 04:02:29;;;;;;;7.40;3.00;;;10.70;86.00;;;;;;5035696;28;20059;-71
2022/11/10 04:10:22;;;;;;;8.82;3.13;;;10.70;86.10;;;;;;5036988;28;20480;-71
2022/11/10 04:15:41;;;;;;;10.18;3.20;;;10.70;86.00;;;;;;5046273;28;20118;-71
2022/11/10 04:18:20;;;;;;;11.57;3.15;;;10.70;85.90;;;;;;5045929;28;20029;-72
2022/11/10 04:20:53;;;;;;;8.40;3.42;;;10.70;86.00;;;;;;5040815;28;20056;-72
2022/11/10 04:23:26;;;;;;;8.63;3.25;;;10.70;86.00;;;;;;5037354;28;20021;-72
2022/11/10 04:28:36;;;;;;;11.93;3.38;;;10.70;86.20;;;;;;5038663;28;20178;-71
2022/11/10 04:31:02;;;;;;;9.85;3.70;;;10.70;86.30;;;;;;5036310;28;20549;-71
2022/11/10 04:33:27;;;;;;;10.10;3.00;;;10.70;86.30;;;;;;5042440;28;20072;-71
2022/11/10 04:35:53;;;;;;;13.63;3.42;;;10.60;86.30;;;;;;5031079;28;20075;-71
2022/11/10 04:38:18;;;;;;;8.43;2.90;;;10.60;86.40;;;;;;5032230;28;20086;-69
2022/11/10 04:40:44;;;;;;;7.60;2.85;;;10.60;86.40;;;;;;5048172;28;20048;-71
2022/11/10 04:43:09;;;;;;;10.23;3.88;;;10.60;86.30;;;;;;5043935;28;20028;-70
2022/11/10 04:45:35;;;;;;;11.00;3.30;;;10.70;86.40;;;;;;5045403;28;20025;-71
2022/11/10 04:48:00;;;;;;;10.68;3.38;;;10.60;86.40;;;;;;5048674;28;20020;-71
2022/11/10 04:50:26;;;;;;;9.57;3.45;;;10.60;86.50;;;;;;5030121;28;20076;-70
2022/11/10 04:52:51;;;;;;;8.82;3.50;;;10.60;86.50;;;;;;5042716;28;20051;-71
2022/11/10 04:55:17;;;;;;;8.10;2.95;;;10.60;86.60;;;;;;5047902;28;20025;-69
2022/11/10 04:57:42;;;;;;;9.55;3.08;;;10.60;86.60;;;;;;5028519;28;20030;-70
2022/11/10 05:00:09;;;;;;;9.45;3.33;;;10.70;86.60;;;;;;5040144;28;20506;-70
2022/11/10 05:02:35;;;;;;;7.80;2.88;;;10.70;86.50;;;;;;5044380;28;20061;-71
2022/11/10 05:05:02;;;;;;;9.52;3.25;;;10.70;86.40;;;;;;5038007;28;20045;-71
2022/11/10 05:07:27;;;;;;;13.02;3.38;;;10.70;86.40;;;;;;5045980;28;20029;-71
2022/11/10 05:09:53;;;;;;;8.88;3.30;;;10.70;86.40;;;;;;5041442;28;20537;-71
2022/11/10 05:12:19;;;;;;;14.70;3.95;;;10.70;86.50;;;;;;5038505;28;20026;-69
2022/11/10 05:14:44;;;;;;;10.85;3.65;;;10.60;86.60;;;;;;5031515;28;20033;-70
2022/11/10 05:17:10;;;;;;;9.73;3.40;;;10.60;86.80;;;;;;5047623;28;20577;-69
2022/11/10 05:19:36;;;;;;;11.10;3.22;;;10.60;86.90;;;;;;5044295;28;20053;-68
2022/11/10 05:22:01;;;;;;;8.85;3.15;;;10.60;86.80;;;;;;5035116;28;20037;-69
2022/11/10 05:24:27;;;;;;;10.10;2.83;;;10.60;86.80;;;;;;5047037;28;20017;-69
2022/11/10 05:26:52;;;;;;;9.23;3.42;;;10.70;86.70;;;;;;5032081;28;20030;-69
2022/11/10 05:29:18;;;;;;;10.57;3.33;;;10.70;86.50;;;;;;5028767;28;20022;-68
2022/11/10 05:31:43;;;;;;;7.13;2.55;;;10.70;86.50;;;;;;5034566;28;20483;-70
2022/11/10 05:34:09;;;;;;;10.95;3.72;;;10.60;86.50;;;;;;5048631;28;20021;-68
2022/11/10 05:36:34;;;;;;;10.00;3.30;;;10.60;86.60;;;;;;5036007;28;20087;-71
2022/11/10 05:39:00;;;;;;;8.73;3.00;;;10.60;86.60;;;;;;5030090;28;20188;-70
2022/11/10 05:41:26;;;;;;;15.10;3.40;;;10.60;86.60;;;;;;5036062;28;20122;-72
2022/11/10 05:43:51;;;;;;;11.02;3.42;;;10.70;86.60;;;;;;5037941;28;20021;-70
2022/11/10 05:46:17;;;;;;;15.30;3.35;;;10.60;86.80;;;;;;5035953;28;20033;-71
2022/11/10 05:48:43;;;;;;;8.35;2.78;;;10.60;86.90;;;;;;5030359;28;20018;-71
2022/11/10 05:51:08;;;;;;;10.60;3.05;;;10.60;87.00;;;;;;5043841;28;20013;-71
2022/11/10 05:53:34;;;;;;;7.82;2.90;;;10.60;87.00;;;;;;5030869;28;20030;-73
2022/11/10 05:55:59;;;;;;;12.02;3.45;;;10.60;87.00;;;;;;5036719;28;20407;-73
2022/11/10 05:58:25;;;;;;;8.95;2.92;;;10.60;87.20;;;;;;5042065;28;20037;-71
2022/11/10 06:00:51;;;;;;;12.95;3.47;;;10.50;87.20;;;;;;5041670;28;20036;-71
2022/11/10 06:03:18;;;;;;;14.38;3.30;;;10.50;87.20;;;;;;5049148;28;20029;-71
2022/11/10 06:05:44;;;;;;;9.65;2.92;;;10.50;87.20;;;;;;5044890;28;20021;-70
2022/11/10 06:08:10;;;;;;;12.30;3.25;;;10.50;87.20;;;;;;5046212;28;20096;-71
2022/11/10 06:10:36;;;;;;;10.45;3.40;;;10.50;87.20;;;;;;5050148;28;20029;-70
2022/11/10 06:13:02;;;;;;;11.70;3.45;;;10.50;87.90;;;;;;5041725;28;20036;-70
2022/11/10 06:15:28;;;;;;;9.95;2.90;;;10.50;87.30;;;;;;5031832;28;20160;-70
2022/11/10 06:17:54;;;;;;;10.90;3.17;;;10.50;87.30;;;;;;5041015;28;20043;-70
2022/11/10 06:20:20;;;;;;;11.13;3.20;;;10.50;87.30;;;;;;5046015;28;20176;-71
2022/11/10 06:23:00;;;;;;;10.50;3.70;;;10.50;87.40;;;;;;5050345;28;20112;-70
2022/11/10 06:25:27;;;;;;;11.73;3.30;;;10.50;87.40;;;;;;5042105;28;20380;-70
2022/11/10 06:27:53;;;;;;;10.90;3.00;;;10.50;87.40;;;;;;5042297;28;20096;-70
2022/11/10 06:30:19;;;;;;;8.88;2.85;;;10.50;87.40;;;;;;5049952;28;20052;-70
2022/11/10 06:32:45;;;;;;;11.15;3.03;;;10.50;87.30;;;;;;5045571;28;20095;-70
2022/11/10 06:35:11;;;;;;;11.73;3.72;;;10.50;87.40;;;;;;5048781;28;20479;-69
2022/11/10 06:37:39;;;;;;;10.70;3.03;;;10.50;87.40;;;;;;5037899;28;20108;-69
2022/11/10 06:40:07;;;;;;;13.18;3.40;;;10.50;87.40;;;;;;5049019;28;20028;-69
2022/11/10 06:42:33;;;;;;;8.48;2.35;;;10.50;87.40;;;;;;5046505;28;20127;-68
2022/11/10 06:44:59;;;;;;;9.65;2.90;;;10.50;87.40;;;;;;5047079;28;20021;-69
2022/11/10 06:47:24;;;;;;;13.65;3.78;;;10.40;87.40;;;;;;5047816;28;20036;-69
2022/11/10 06:49:50;;;;;;;11.23;3.40;;;10.40;88.10;;;;;;5047019;28;20029;-69
2022/11/10 06:52:15;;;;;;;10.13;2.60;;;10.40;87.60;;;;;;5044947;28;20507;-69
2022/11/10 06:54:41;;;;;;;8.68;2.70;;;10.40;87.40;;;;;;5037172;28;20501;-70
2022/11/10 06:57:07;;;;;;;8.00;2.60;;;10.50;87.30;;;;;;5039592;28;20163;-70
2022/11/10 06:59:32;;;;;;;10.23;3.15;;;10.50;87.30;;;;;;5043504;28;20052;-70
2022/11/10 07:01:58;;;;;;;12.65;2.90;;;10.50;87.30;;;;;;5044842;28;20095;-69
2022/11/10 07:04:23;;;;;;;12.77;3.30;;;10.50;87.20;;;;;;5044259;28;20021;-70
2022/11/10 07:06:49;;;;;;;8.75;2.50;;;10.50;87.20;;;;;;5040979;28;20025;-69
2022/11/10 07:09:14;;;;;;;10.57;3.00;;;10.50;87.90;;;;;;5044881;28;20039;-70
2022/11/10 07:11:40;;;;;;;12.05;3.47;;;10.50;87.20;;;;;;5047928;28;20099;-69
2022/11/10 07:14:06;;;;;;;10.27;2.85;;;10.50;87.30;;;;;;5044401;28;20104;-69
2022/11/10 07:16:32;;;;;;;11.55;3.05;;;10.60;87.30;;;;;;5039346;28;20041;-69
2022/11/10 07:18:57;;;;;;;9.68;3.08;;;10.60;87.30;;;;;;5033963;28;20545;-68
2022/11/10 07:21:23;;;;;;;9.40;3.00;;;10.60;87.10;;;;;;5047682;28;20653;-69
2022/11/10 07:23:48;;;;;;;10.30;2.60;;;10.60;87.10;;;;;;5048085;28;20149;-68
2022/11/10 07:26:14;;;;;;;8.25;2.70;;;10.60;87.00;;;;;;5046285;28;20041;-68
2022/11/10 07:28:41;;;;;;;9.38;2.78;;;10.60;87.00;;;;;;5045651;28;20025;-68
2022/11/10 07:31:06;;;;;;;20.20;3.97;;;10.60;87.00;;;;;;5049723;28;20016;-68
2022/11/10 07:33:32;;;;;;;12.10;3.42;;;10.70;87.20;;;;;;5049998;28;20051;-68
2022/11/10 07:36:02;;;;;;;11.50;3.13;;;10.60;87.80;;;;;;5049649;28;20440;-69
2022/11/10 07:38:27;;;;;;;12.35;3.10;;;10.60;87.20;;;;;;5050034;28;20028;-68
2022/11/10 07:40:53;;;;;;;10.43;3.00;;;10.70;87.20;;;;;;5048620;28;20449;-68
2022/11/10 07:43:20;;;;;;;10.57;3.35;;;10.70;87.00;;;;;;5049818;28;20033;-68
2022/11/10 07:45:46;;;;;;;12.52;3.63;;;10.80;87.10;;;;;;5037557;28;20017;-67
2022/11/10 07:48:12;;;;;;;13.60;3.83;;;10.80;87.10;;;;;;5043983;28;20052;-69
2022/11/10 07:50:37;;;;;;;12.52;3.67;;;10.80;87.10;;;;;;5048696;28;20032;-68
2022/11/10 07:53:08;;;;;;;8.48;2.72;;;10.80;87.20;;;;;;5047692;28;20023;-68
2022/11/10 07:55:35;;;;;;;11.65;3.22;;;10.80;87.80;;;;;;5044794;28;20017;-68
2022/11/10 07:58:01;;;;;;;8.38;3.00;;;10.90;87.10;;;;;;5050296;28;20029;-67
2022/11/10 08:00:27;;;;;;;16.58;3.35;;;10.90;87.10;;;;;;5051268;28;20082;-68
2022/11/10 08:02:52;;;;;;;11.50;3.08;;;10.90;87.10;;;;;;5043607;28;20100;-67
2022/11/10 08:05:18;;;;;;;10.05;3.28;;;10.90;87.00;;;;;;5043655;28;20586;-68
2022/11/10 08:07:44;;;;;;;11.35;2.97;;;10.90;87.00;;;;;;5049216;28;20426;-69
2022/11/10 08:10:09;;;;;;;9.00;3.30;;;11.00;87.00;;;;;;5048898;28;20036;-68
2022/11/10 08:12:35;;;;;;;8.75;2.80;;;11.00;87.00;;;;;;5048665;28;20036;-68
2022/11/10 08:15:01;;;;;;;15.68;3.72;;;10.90;87.00;;;;;;5043207;28;20663;-68
2022/11/10 08:17:27;;;;;;;10.48;2.90;;;11.00;87.00;;;;;;5049220;28;20095;-68
2022/11/10 08:19:52;;;;;;;7.60;2.92;;;11.00;87.00;;;;;;5036337;28;20595;-69
2022/11/10 08:22:18;;;;;;;14.80;4.05;;;11.10;86.90;;;;;;5048466;28;20032;-68
2022/11/10 08:24:43;;;;;;;9.77;3.40;;;11.10;87.00;;;;;;5048010;28;20074;-69
2022/11/10 08:27:09;;;;;;;13.63;3.70;;;11.10;87.10;;;;;;5046794;28;20032;-69
2022/11/10 08:29:34;;;;;;;14.70;4.20;;;11.10;87.10;;;;;;5048709;28;20025;-68
2022/11/10 08:32:00;;;;;;;9.70;3.50;;;11.10;87.10;;;;;;5048718;28;20151;-69
2022/11/10 08:34:25;;;;;;;13.52;4.20;;;11.20;87.10;;;;;;5047782;28;20041;-69
2022/11/10 08:36:52;;;;;;;15.13;3.53;;;11.20;87.10;;;;;;5044492;28;20658;-68
2022/11/10 08:39:17;;;;;;;13.18;3.80;;;11.20;87.20;;;;;;5047193;28;20028;-68
2022/11/10 08:41:43;;;;;;;16.25;4.40;;;11.30;87.10;;;;;;5036736;28;20388;-68
2022/11/10 08:44:09;;;;;;;10.10;3.55;;;11.40;86.90;;;;;;5048795;28;20387;-69
2022/11/10 08:46:34;;;;;;;9.05;3.17;;;11.40;86.90;;;;;;5047432;28;20017;-68
2022/11/10 08:49:00;;;;;;;10.52;3.28;;;11.50;86.80;;;;;;5048762;28;20111;-69
2022/11/10 08:51:25;;;;;;;13.73;3.60;;;11.60;86.60;;;;;;5048279;28;20009;-68
2022/11/10 08:53:51;;;;;;;15.68;3.80;;;11.60;86.50;;;;;;5030417;28;20025;-68
2022/11/10 08:56:16;;;;;;;9.35;3.33;;;11.70;86.50;;;;;;5041116;28;20075;-68
2022/11/10 08:58:42;;;;;;;11.35;3.15;;;11.80;86.50;;;;;;5047936;28;20507;-69
2022/11/10 09:01:09;;;;;;;12.38;3.30;;;11.90;86.20;;;;;;5044343;28;20075;-68
2022/11/10 09:03:35;;;;;;;10.70;2.95;;;12.00;86.10;;;;;;5048768;28;20027;-68
2022/11/10 09:06:00;;;;;;;17.67;4.25;;;12.10;85.80;;;;;;5035181;28;20025;-68
2022/11/10 09:08:26;;;;;;;11.43;3.70;;;12.10;85.70;;;;;;5044596;28;20071;-69
2022/11/10 09:10:51;;;;;;;17.55;4.15;;;12.20;85.60;;;;;;5045815;28;20028;-69
2022/11/10 09:13:20;;;;;;;12.20;3.97;;;12.10;85.50;;;;;;5045587;28;20040;-68
2022/11/10 09:15:45;;;;;;;11.88;3.10;;;12.20;85.50;;;;;;5046328;28;20047;-69
2022/11/10 09:18:12;;;;;;;13.85;2.83;;;12.20;85.50;;;;;;5044835;28;20088;-69
2022/11/10 09:20:38;;;;;;;11.05;4.00;;;12.20;85.40;;;;;;5048155;28;20074;-69
2022/11/10 09:23:10;;;;;;;14.82;3.33;;;12.30;85.30;;;;;;5048946;28;20484;-68
2022/11/10 09:25:36;;;;;;;10.73;3.20;;;12.30;85.20;;;;;;5052758;28;20368;-69
2022/11/10 09:28:01;;;;;;;9.25;2.95;;;12.40;85.20;;;;;;5042084;28;20020;-69
2022/11/10 09:30:27;;;;;;;6.22;2.40;;;12.40;85.20;;;;;;5047194;28;20044;-69
2022/11/10 09:32:54;;;;;;;15.52;3.83;;;12.50;85.00;;;;;;5048770;28;20036;-69
2022/11/10 09:35:20;;;;;;;16.40;3.60;;;12.50;84.80;;;;;;5051409;28;20029;-68
2022/11/10 09:37:45;;;;;;;8.68;2.67;;;12.50;84.80;;;;;;5048373;28;20660;-69
2022/11/10 09:40:24;;;;;;;17.55;4.03;;;12.60;84.70;;;;;;5052061;28;20021;-68
2022/11/10 09:42:55;;;;;;;15.05;3.72;;;12.60;84.60;;;;;;5051724;28;20131;-68
2022/11/10 09:45:34;;;;;;;18.47;3.70;;;12.70;84.50;;;;;;5042254;28;20094;-69
2022/11/10 09:48:10;;;;;;;10.30;3.00;;;12.70;84.40;;;;;;5046588;28;20286;-69
2022/11/10 09:50:43;;;;;;;14.68;3.95;;;12.70;84.30;;;;;;5040729;28;20072;-69
2022/11/10 09:53:23;;;;;;;22.20;3.60;;;12.80;84.20;;;;;;5049253;28;20021;-68
2022/11/10 09:55:53;;;;;;;25.58;4.60;;;12.80;84.10;;;;;;5045689;28;20025;-69
2022/11/10 09:58:24;;;;;;;18.48;3.40;;;12.90;84.00;;;;;;5044123;28;20503;-69
2022/11/10 10:01:01;;;;;;;11.05;2.50;;;13.00;84.00;;;;;;5043103;28;20025;-69
2022/11/10 10:03:30;;;;;;;13.88;3.30;;;13.10;83.90;;;;;;5041257;28;20470;-69
2022/11/10 10:06:08;;;;;;;11.98;3.60;;;13.10;83.70;;;;;;5050703;28;20017;-69
2022/11/10 10:08:45;;;;;;;14.13;3.55;;;13.10;83.60;;;;;;5039768;28;20018;-68
2022/11/10 10:11:36;;;;;;;11.00;3.28;;;13.20;83.60;;;;;;5045659;28;20036;-68
2022/11/10 10:14:11;;;;;;;14.10;3.67;;;13.30;83.50;;;;;;5043080;28;20145;-69
2022/11/10 10:17:21;;;;;;;10.50;3.35;;;13.30;83.20;;;;;;5051237;28;20078;-68
2022/11/10 10:20:24;;;;;;;10.90;3.00;;;13.40;83.20;;;;;;5023021;28;20043;-69
2022/11/10 10:23:20;;;;;;;14.43;3.13;;;13.50;83.10;;;;;;5033910;28;20048;-68
2022/11/10 10:25:45;;;;;;;14.52;3.38;;;13.60;82.90;;;;;;5043376;28;20434;-68
2022/11/10 10:28:37;;;;;;;9.95;3.10;;;13.60;82.70;;;;;;5046616;28;20025;-69
2022/11/10 10:31:23;;;;;;;11.45;3.45;;;13.70;82.60;;;;;;5049424;28;20781;-68
2022/11/10 10:33:49;;;;;;;11.52;3.42;;;13.70;82.30;;;;;;5035428;28;20376;-68
2022/11/10 10:36:24;;;;;;;13.23;3.45;;;13.70;82.20;;;;;;5040336;28;20021;-69
2022/11/10 10:38:54;;;;;;;12.20;3.30;;;13.60;81.90;;;;;;5051436;28;20647;-69
2022/11/10 10:41:28;;;;;;;18.10;3.60;;;13.70;82.10;;;;;;5043590;28;20410;-67
2022/11/10 10:43:56;;;;;;;24.45;3.47;;;13.70;82.00;;;;;;5051325;28;20033;-68
2022/11/10 10:46:28;;;;;;;11.05;2.78;;;13.80;82.00;;;;;;5047311;28;20025;-68
2022/11/10 10:49:15;;;;;;;8.10;2.95;;;13.80;81.80;;;;;;5050740;28;20036;-69
2022/11/10 10:51:41;;;;;;;12.82;3.53;;;13.90;81.50;;;;;;5045289;28;20648;-68
2022/11/10 10:54:25;;;;;;;10.27;3.28;;;13.90;81.40;;;;;;5043610;28;20028;-69
2022/11/10 10:57:20;;;;;;;10.88;2.85;;;14.00;81.20;;;;;;5047069;28;20479;-68
2022/11/10 10:59:46;;;;;;;25.48;3.58;;;14.10;81.10;;;;;;5048370;28;20013;-68
2022/11/10 11:02:30;;;;;;;10.80;2.92;;;14.10;80.90;;;;;;5049507;28;20505;-68
2022/11/10 11:05:10;;;;;;;10.52;3.10;;;14.20;80.80;;;;;;5047813;28;20048;-69
2022/11/10 11:07:37;;;;;;;9.88;3.00;;;14.30;80.40;;;;;;5048712;28;20017;-69
2022/11/10 11:10:16;;;;;;;15.25;3.20;;;14.30;80.30;;;;;;5049416;28;20029;-70
2022/11/10 11:12:41;;;;;;;9.88;2.85;;;14.40;80.80;;;;;;5047484;28;21227;-68
2022/11/10 11:15:21;;;;;;;11.50;2.80;;;14.40;80.40;;;;;;5046556;28;20028;-68
2022/11/10 11:17:58;;;;;;;8.27;2.47;;;14.50;80.00;;;;;;5045972;28;20063;-68
2022/11/10 11:20:37;;;;;;;10.45;3.00;;;14.50;79.60;;;;;;5049930;28;20021;-68
2022/11/10 11:23:22;;;;;;;8.77;2.55;;;14.60;79.60;;;;;;5049802;28;20035;-68
2022/11/10 11:25:50;;;;;;;10.38;2.92;;;14.70;79.50;;;;;;5037387;28;20025;-68
2022/11/10 11:28:42;;;;;;;14.25;3.67;;;14.80;79.10;;;;;;5038763;28;20414;-68
2022/11/10 11:31:28;;;;;;;11.77;3.05;;;14.80;78.80;;;;;;5028659;28;20056;-68
2022/11/10 11:34:12;;;;;;;10.35;3.22;;;14.80;78.60;;;;;;5047427;28;20051;-69
2022/11/10 11:36:43;;;;;;;10.35;3.08;;;14.80;78.30;;;;;;5040941;28;20041;-69
2022/11/10 11:39:30;;;;;;;7.97;2.40;;;14.80;78.50;;;;;;5039112;28;20025;-68
2022/11/10 11:42:06;;;;;;;9.07;2.90;;;15.00;79.60;;;;;;5041465;28;20090;-68
2022/11/10 11:44:50;;;;;;;7.20;2.13;;;15.90;77.30;;;;;;5042701;28;20755;-69
2022/11/10 11:47:35;;;;;;;8.15;2.33;;;16.70;74.70;;;;;;5043148;28;20404;-69
2022/11/10 11:50:26;;;;;;;10.32;2.80;;;16.90;73.40;;;;;;5041209;28;20476;-68
2022/11/10 11:53:04;;;;;;;7.10;2.35;;;17.30;72.00;;;;;;5040579;28;20499;-69
2022/11/10 11:55:33;;;;;;;10.60;3.15;;;17.60;71.10;;;;;;5034749;28;20024;-69
2022/11/10 11:58:24;;;;;;;10.07;2.75;;;17.90;70.30;;;;;;5044438;28;20029;-70
2022/11/10 12:01:06;;;;;;;9.32;3.00;;;17.50;69.70;;;;;;5045780;28;20079;-70
2022/11/10 12:04:03;;;;;;;8.43;2.55;;;17.20;71.10;;;;;;5043997;28;20026;-70
2022/11/10 12:07:01;;;;;;;13.70;2.90;;;16.80;72.20;;;;;;5045217;28;20064;-70
2022/11/10 12:09:46;;;;;;;11.40;2.75;;;16.60;73.00;;;;;;5040104;28;20032;-70
2022/11/10 12:12:55;;;;;;;11.75;2.90;;;16.90;72.90;;;;;;5042248;28;20407;-69
2022/11/10 12:15:28;;;;;;;9.30;2.90;;;17.80;70.80;;;;;;5047007;28;20037;-70
2022/11/10 12:18:17;;;;;;;7.57;2.47;;;18.40;68.90;;;;;;5043504;28;20025;-69
2022/11/10 12:20:45;;;;;;;9.35;2.40;;;18.40;67.50;;;;;;5040432;28;20068;-70
2022/11/10 12:23:37;;;;;;;13.63;2.97;;;18.30;67.80;;;;;;5042634;28;20033;-70
2022/11/10 12:26:30;;;;;;;9.13;2.70;;;18.00;67.90;;;;;;5038461;28;20055;-70
2022/11/10 12:29:36;;;;;;;9.43;2.90;;;17.30;69.20;;;;;;5044616;28;20024;-69
2022/11/10 12:32:20;;;;;;;11.98;2.47;;;17.00;70.10;;;;;;5042034;28;20061;-70
2022/11/10 12:35:12;;;;;;;8.23;2.20;;;16.80;70.80;;;;;;5044735;28;20032;-70
2022/11/10 12:37:43;;;;;;;8.73;2.75;;;16.60;71.50;;;;;;5045210;28;20738;-69
2022/11/10 12:40:40;;;;;;;11.35;2.65;;;16.40;71.90;;;;;;5038748;28;20071;-69
2022/11/10 12:43:19;;;;;;;9.48;2.30;;;16.30;72.10;;;;;;5038829;28;20045;-69
2022/11/10 12:45:50;;;;;;;9.38;2.28;;;16.20;72.60;;;;;;5046229;28;20071;-68
2022/11/10 12:48:17;;;;;;;13.00;2.38;;;16.10;72.80;;;;;;5046403;28;20017;-69
2022/11/10 12:50:55;;;;;;;7.80;2.10;;;16.10;73.20;;;;;;5042789;28;20051;-69
2022/11/10 12:53:22;;;;;;;7.32;2.40;;;16.10;73.40;;;;;;5044245;28;20491;-68
2022/11/10 12:56:00;;;;;;;9.80;2.67;;;16.00;73.50;;;;;;5041027;28;20036;-69
2022/11/10 12:58:26;;;;;;;6.80;2.17;;;15.90;73.60;;;;;;5045714;28;20024;-68
2022/11/10 13:01:19;;;;;;;7.35;2.40;;;15.90;73.60;;;;;;5043090;28;20537;-68
2022/11/10 13:03:57;;;;;;;6.30;2.20;;;15.90;73.70;;;;;;5039939;28;20131;-68
2022/11/10 13:06:29;;;;;;;10.75;2.38;;;15.90;73.80;;;;;;5044178;28;20085;-68
2022/11/10 13:08:55;;;;;;;;;;;15.90;73.90;;;;;;5040914;28;20053;-68